Time;durP1;ratioP1;P1;durP2;ratioP2;P2;SDS_P1;SDS_P2;PMS_P1;PMS_P2;Temp;Humidity;BMP_temperature;BMP_pressure;BME280_temperature;BME280_humidity;BME280_pressure;Samples;Min_cycle;Max_cycle;Signal;HPM_P1;HPM_P2
2022/02/14 00:00:19;;;;;;;14.25;5.03;;;9.10;99.90;;;;;;4950392;28;20039;-79
2022/02/14 00:02:46;;;;;;;12.10;4.82;;;9.10;99.90;;;;;;4947296;28;20027;-79
2022/02/14 00:05:12;;;;;;;11.43;4.70;;;9.10;99.90;;;;;;4961703;28;20062;-79
2022/02/14 00:07:39;;;;;;;11.18;4.82;;;9.10;99.90;;;;;;4956477;28;20030;-79
2022/02/14 00:10:06;;;;;;;10.02;4.97;;;9.10;99.90;;;;;;4963952;28;20058;-78
2022/02/14 00:12:34;;;;;;;12.77;5.38;;;9.00;99.90;;;;;;4964017;28;20034;-78
2022/02/14 00:15:03;;;;;;;14.40;6.93;;;9.10;99.90;;;;;;4977251;28;20030;-78
2022/02/14 00:17:28;;;;;;;16.27;7.72;;;9.00;99.90;;;;;;4956305;28;20074;-79
2022/02/14 00:19:54;;;;;;;13.63;7.28;;;9.00;99.90;;;;;;4945452;28;20439;-78
2022/02/14 00:22:23;;;;;;;16.98;7.25;;;8.90;99.90;;;;;;4944976;28;20058;-78
2022/02/14 00:24:50;;;;;;;16.23;7.05;;;9.00;99.90;;;;;;4964220;28;20039;-78
2022/02/14 00:27:17;;;;;;;21.65;8.65;;;9.00;99.90;;;;;;4961544;28;20066;-78
2022/02/14 00:29:42;;;;;;;14.52;6.40;;;9.10;99.90;;;;;;4977104;28;20105;-78
2022/02/14 00:32:08;;;;;;;12.38;5.68;;;9.10;99.90;;;;;;4959432;28;20035;-78
2022/02/14 00:34:34;;;;;;;12.15;5.22;;;9.20;99.90;;;;;;4946681;28;20018;-78
2022/02/14 00:37:00;;;;;;;12.75;5.13;;;9.20;99.90;;;;;;4962451;28;20073;-78
2022/02/14 00:39:25;;;;;;;10.45;4.57;;;9.10;99.90;;;;;;4945206;28;20570;-78
2022/02/14 00:41:51;;;;;;;9.93;5.32;;;9.20;99.90;;;;;;4977016;28;20045;-79
2022/02/14 00:44:17;;;;;;;9.50;4.93;;;9.20;99.90;;;;;;4947616;28;20474;-78
2022/02/14 00:46:42;;;;;;;9.27;4.68;;;9.20;99.90;;;;;;4962595;28;20058;-79
2022/02/14 00:49:08;;;;;;;12.15;5.15;;;9.20;99.90;;;;;;4939637;28;20460;-79
2022/02/14 00:51:34;;;;;;;12.00;5.28;;;9.20;99.90;;;;;;4948237;28;20065;-79
2022/02/14 00:53:59;;;;;;;14.70;4.63;;;9.20;99.90;;;;;;4943727;28;20022;-79
2022/02/14 00:56:25;;;;;;;8.95;4.05;;;9.30;99.90;;;;;;4959429;28;20023;-79
2022/02/14 00:58:51;;;;;;;10.38;4.13;;;9.40;99.90;;;;;;4963013;28;20381;-78
2022/02/14 01:01:17;;;;;;;13.82;4.57;;;9.40;99.90;;;;;;4960961;28;20070;-78
2022/02/14 01:03:43;;;;;;;11.98;4.80;;;9.40;99.90;;;;;;4974341;28;20027;-78
2022/02/14 01:06:08;;;;;;;10.68;4.70;;;9.40;99.90;;;;;;4976817;28;20038;-78
2022/02/14 01:08:34;;;;;;;11.77;5.38;;;9.30;99.90;;;;;;4961236;28;20030;-78
2022/02/14 01:11:00;;;;;;;12.23;4.57;;;9.20;99.90;;;;;;4946958;28;20027;-78
2022/02/14 01:13:25;;;;;;;13.00;4.97;;;9.20;99.90;;;;;;4978104;28;20030;-78
2022/02/14 01:15:51;;;;;;;10.98;4.53;;;9.20;99.90;;;;;;4979079;28;20042;-78
2022/02/14 01:18:17;;;;;;;10.10;4.50;;;9.00;99.90;;;;;;4960332;28;20027;-78
2022/02/14 01:20:42;;;;;;;13.35;4.35;;;8.90;99.90;;;;;;4950893;28;20063;-79
2022/02/14 01:23:08;;;;;;;11.13;4.78;;;8.90;99.90;;;;;;4967280;28;20046;-78
2022/02/14 01:25:34;;;;;;;15.38;4.70;;;9.00;99.90;;;;;;4945772;28;20031;-79
2022/02/14 01:28:00;;;;;;;12.52;4.40;;;9.00;99.90;;;;;;4969307;28;20037;-78
2022/02/14 01:30:25;;;;;;;12.27;4.82;;;9.00;99.90;;;;;;4963494;28;20537;-79
2022/02/14 01:32:51;;;;;;;12.65;4.75;;;8.90;99.90;;;;;;4945872;28;20510;-79
2022/02/14 01:35:17;;;;;;;9.48;4.43;;;8.90;99.90;;;;;;4966783;28;20038;-79
2022/02/14 01:37:43;;;;;;;13.70;4.75;;;8.90;99.90;;;;;;4969280;28;20126;-79
2022/02/14 01:40:11;;;;;;;13.52;5.55;;;9.00;99.90;;;;;;4947763;28;20046;-81
2022/02/14 01:42:36;;;;;;;13.25;4.75;;;9.00;99.90;;;;;;4976583;28;20089;-77
2022/02/14 01:45:04;;;;;;;12.35;5.07;;;9.00;99.90;;;;;;4982777;28;20475;-78
2022/02/14 01:47:30;;;;;;;12.20;4.80;;;9.10;99.90;;;;;;4964126;28;20062;-78
2022/02/14 01:49:58;;;;;;;14.30;4.95;;;9.00;99.90;;;;;;4983872;28;20055;-78
2022/02/14 01:52:24;;;;;;;11.85;4.88;;;9.00;99.90;;;;;;4960775;28;20539;-78
2022/02/14 01:54:51;;;;;;;14.65;5.07;;;9.10;99.90;;;;;;4951114;28;20026;-78
2022/02/14 01:57:18;;;;;;;14.05;4.90;;;9.10;99.90;;;;;;4979363;28;20126;-77
2022/02/14 01:59:44;;;;;;;12.63;5.03;;;9.00;99.90;;;;;;4976627;28;20029;-78
2022/02/14 02:02:11;;;;;;;11.38;5.47;;;9.10;99.90;;;;;;4976671;28;20161;-77
2022/02/14 02:04:37;;;;;;;11.38;4.97;;;9.00;99.90;;;;;;4956446;28;20044;-77
2022/02/14 02:07:04;;;;;;;12.05;4.88;;;8.90;99.90;;;;;;4964164;28;20029;-77
2022/02/14 02:09:31;;;;;;;11.75;5.35;;;8.80;99.90;;;;;;4971507;28;20030;-77
2022/02/14 02:14:41;;;;;;;9.95;4.57;;;8.90;99.90;;;;;;4982585;28;20054;-77
2022/02/14 02:17:07;;;;;;;12.93;5.10;;;9.00;99.90;;;;;;4975480;28;20035;-77
2022/02/14 02:19:34;;;;;;;12.95;5.28;;;8.90;99.90;;;;;;4979603;28;20443;-78
2022/02/14 02:22:00;;;;;;;11.63;5.00;;;8.90;99.90;;;;;;4961208;28;20122;-78
2022/02/14 02:24:26;;;;;;;13.50;4.80;;;9.00;99.90;;;;;;4981093;28;20022;-78
2022/02/14 02:27:00;;;;;;;12.25;5.15;;;9.00;99.90;;;;;;4963954;28;20121;-78
2022/02/14 02:29:26;;;;;;;11.88;5.05;;;9.00;99.90;;;;;;4938044;29;20028;-78
2022/02/14 02:31:53;;;;;;;11.82;5.30;;;9.00;99.90;;;;;;4923619;29;20038;-78
2022/02/14 02:34:19;;;;;;;12.32;5.15;;;9.00;99.90;;;;;;4951408;29;20035;-78
2022/02/14 02:36:50;;;;;;;11.95;4.15;;;8.90;99.90;;;;;;4941402;29;20024;-78
2022/02/14 02:39:16;;;;;;;10.30;5.22;;;9.00;99.90;;;;;;4956900;29;20038;-78
2022/02/14 02:41:42;;;;;;;11.23;4.38;;;8.90;99.90;;;;;;4957431;29;20043;-78
2022/02/14 02:44:08;;;;;;;11.07;4.78;;;9.00;99.90;;;;;;4905000;29;20035;-78
2022/02/14 02:46:34;;;;;;;11.73;4.80;;;8.90;99.90;;;;;;4934641;29;20120;-78
2022/02/14 02:49:21;;;;;;;11.40;4.55;;;8.80;99.90;;;;;;4937742;29;20032;-78
2022/02/14 02:51:49;;;;;;;9.85;4.25;;;8.80;99.90;;;;;;4936333;29;20032;-78
2022/02/14 02:54:15;;;;;;;10.15;4.63;;;8.80;99.90;;;;;;4952318;29;20031;-78
2022/02/14 02:56:43;;;;;;;12.10;4.45;;;8.80;99.90;;;;;;4954948;29;20069;-78
2022/02/14 02:59:09;;;;;;;9.57;4.22;;;8.80;99.90;;;;;;4940861;29;20130;-78
2022/02/14 03:01:35;;;;;;;9.02;4.57;;;8.70;99.90;;;;;;4952986;29;20103;-80
2022/02/14 03:04:03;;;;;;;12.32;4.47;;;8.80;99.90;;;;;;4939231;29;20036;-78
2022/02/14 03:06:29;;;;;;;11.98;4.60;;;8.70;99.90;;;;;;4939965;29;20095;-79
2022/02/14 03:08:55;;;;;;;13.95;4.28;;;8.80;99.90;;;;;;4924104;29;20028;-79
2022/02/14 03:11:21;;;;;;;12.80;4.07;;;8.80;99.90;;;;;;4943235;29;20099;-79
2022/02/14 03:13:48;;;;;;;11.32;4.60;;;8.90;99.90;;;;;;4934946;29;20032;-78
2022/02/14 03:16:14;;;;;;;12.48;5.20;;;8.90;99.90;;;;;;4941914;29;20031;-78
2022/02/14 03:18:40;;;;;;;10.93;4.95;;;8.90;99.90;;;;;;4938154;29;20050;-78
2022/02/14 03:21:07;;;;;;;12.15;4.35;;;9.00;99.90;;;;;;4921340;29;20039;-78
2022/02/14 03:23:32;;;;;;;10.48;4.28;;;8.90;99.90;;;;;;4953682;29;20062;-78
2022/02/14 03:25:58;;;;;;;9.45;4.18;;;8.90;99.90;;;;;;4952587;28;20397;-78
2022/02/14 03:28:25;;;;;;;10.50;3.75;;;8.90;99.90;;;;;;4941405;29;20019;-78
2022/02/14 03:30:50;;;;;;;11.48;4.30;;;9.00;99.90;;;;;;4954331;29;20024;-78
2022/02/14 03:33:16;;;;;;;11.15;4.50;;;9.00;99.90;;;;;;4925771;29;20060;-78
2022/02/14 03:35:42;;;;;;;9.73;4.78;;;9.00;99.90;;;;;;4922311;29;20543;-78
2022/02/14 03:38:07;;;;;;;11.38;4.15;;;9.00;99.90;;;;;;4938959;29;20043;-80
2022/02/14 03:40:34;;;;;;;12.00;3.92;;;9.00;99.90;;;;;;4939391;29;20083;-79
2022/02/14 03:43:01;;;;;;;11.52;4.32;;;8.90;99.90;;;;;;4954920;29;20047;-79
2022/02/14 03:45:27;;;;;;;9.05;4.18;;;8.90;99.90;;;;;;4939808;29;20063;-78
2022/02/14 03:47:53;;;;;;;10.68;4.05;;;8.90;99.90;;;;;;4932912;29;20028;-78
2022/02/14 03:50:20;;;;;;;11.45;4.22;;;8.90;99.90;;;;;;4939592;29;20087;-79
2022/02/14 03:52:45;;;;;;;10.52;3.92;;;8.90;99.90;;;;;;4937448;29;20059;-78
2022/02/14 03:55:11;;;;;;;10.18;4.38;;;8.90;99.90;;;;;;4922342;29;20067;-78
2022/02/14 03:57:38;;;;;;;12.10;4.38;;;8.90;99.90;;;;;;4939991;29;20040;-78
2022/02/14 04:00:08;;;;;;;13.55;3.95;;;8.90;99.90;;;;;;4923256;29;20046;-78
2022/02/14 04:02:34;;;;;;;11.85;4.32;;;8.90;99.90;;;;;;4954670;29;20083;-78
2022/02/14 04:05:00;;;;;;;13.13;4.47;;;8.80;99.90;;;;;;4904304;29;20079;-78
2022/02/14 04:07:26;;;;;;;11.82;4.47;;;8.80;99.90;;;;;;4940807;29;20023;-78
2022/02/14 04:09:51;;;;;;;13.50;4.07;;;8.90;99.90;;;;;;4955207;28;20035;-78
2022/02/14 04:12:17;;;;;;;16.77;4.57;;;8.80;99.90;;;;;;4922450;29;20563;-78
2022/02/14 04:14:43;;;;;;;9.48;3.95;;;8.90;99.90;;;;;;4923735;29;20110;-78
2022/02/14 04:17:09;;;;;;;9.35;4.13;;;8.90;99.90;;;;;;4916849;29;20067;-78
2022/02/14 04:19:34;;;;;;;12.35;4.10;;;8.90;99.90;;;;;;4938489;29;20031;-79
2022/02/14 04:22:00;;;;;;;9.75;4.43;;;9.00;99.90;;;;;;4923592;29;20535;-78
2022/02/14 04:24:27;;;;;;;8.93;3.78;;;9.00;99.90;;;;;;4940554;29;20516;-79
2022/02/14 04:26:52;;;;;;;9.95;3.95;;;9.00;99.90;;;;;;4938051;28;20087;-78
2022/02/14 04:29:18;;;;;;;9.60;3.80;;;8.90;99.90;;;;;;4924283;29;20030;-79
2022/02/14 04:31:44;;;;;;;11.00;3.95;;;9.00;99.90;;;;;;4941125;29;20044;-79
2022/02/14 04:34:09;;;;;;;8.13;3.83;;;9.00;99.90;;;;;;4938996;29;20067;-79
2022/02/14 04:36:35;;;;;;;8.50;3.80;;;9.00;99.90;;;;;;4922847;29;20038;-79
2022/02/14 04:39:01;;;;;;;10.98;3.92;;;9.00;99.90;;;;;;4921034;29;20091;-79
2022/02/14 04:41:26;;;;;;;10.77;4.32;;;9.00;99.90;;;;;;4955852;29;20085;-78
2022/02/14 04:43:52;;;;;;;10.00;3.53;;;9.00;99.90;;;;;;4951206;29;20040;-78
2022/02/14 04:46:18;;;;;;;9.38;3.70;;;9.10;99.90;;;;;;4940865;29;20111;-79
2022/02/14 04:48:45;;;;;;;10.05;3.67;;;9.00;99.90;;;;;;4938356;29;20036;-79
2022/02/14 04:51:11;;;;;;;9.90;3.72;;;9.10;99.90;;;;;;4921065;29;20027;-79
2022/02/14 04:53:37;;;;;;;8.77;3.70;;;9.10;99.90;;;;;;4952957;29;20494;-79
2022/02/14 04:56:03;;;;;;;10.88;3.85;;;9.20;99.90;;;;;;4952428;29;20028;-79
2022/02/14 04:58:28;;;;;;;13.27;3.58;;;9.30;99.90;;;;;;4940004;29;21239;-79
2022/02/14 05:00:54;;;;;;;9.82;3.20;;;9.30;99.90;;;;;;4925006;29;20501;-81
2022/02/14 05:03:20;;;;;;;14.55;4.07;;;9.40;99.90;;;;;;4918280;29;20036;-82
2022/02/14 05:05:46;;;;;;;9.02;3.50;;;9.40;99.90;;;;;;4937102;29;20035;-78
2022/02/14 05:08:12;;;;;;;8.73;3.17;;;9.40;99.90;;;;;;4937201;29;20043;-81
2022/02/14 05:10:38;;;;;;;8.77;3.17;;;9.30;99.90;;;;;;4938404;29;20039;-80
2022/02/14 05:13:03;;;;;;;11.20;3.47;;;9.30;99.90;;;;;;4921262;29;20043;-79
2022/02/14 05:15:29;;;;;;;8.98;3.30;;;9.40;99.90;;;;;;4938421;29;20515;-81
2022/02/14 05:17:55;;;;;;;9.70;3.50;;;9.30;99.90;;;;;;4921749;29;20024;-77
2022/02/14 05:20:20;;;;;;;9.82;3.75;;;9.30;99.90;;;;;;4918638;29;20067;-77
2022/02/14 05:22:46;;;;;;;10.88;3.88;;;9.40;99.90;;;;;;4920645;29;20028;-77
2022/02/14 05:25:12;;;;;;;12.63;3.90;;;9.40;99.90;;;;;;4937623;29;20034;-78
2022/02/14 05:27:37;;;;;;;11.27;4.32;;;9.40;99.90;;;;;;4938961;29;20516;-77
2022/02/14 05:30:05;;;;;;;7.65;3.25;;;9.40;99.90;;;;;;4937444;29;20027;-77
2022/02/14 05:32:30;;;;;;;12.07;3.83;;;9.40;99.90;;;;;;4955440;29;20032;-77
2022/02/14 05:34:56;;;;;;;9.43;3.20;;;9.40;99.90;;;;;;4938623;29;20063;-78
2022/02/14 05:37:23;;;;;;;10.40;3.70;;;9.40;99.90;;;;;;4938149;29;20515;-78
2022/02/14 05:39:48;;;;;;;10.13;4.13;;;9.40;99.90;;;;;;4938184;29;20104;-78
2022/02/14 05:42:14;;;;;;;12.38;3.88;;;9.40;99.90;;;;;;4938635;29;20103;-78
2022/02/14 05:44:40;;;;;;;9.48;3.67;;;9.40;99.90;;;;;;4941312;29;20032;-77
2022/02/14 05:47:07;;;;;;;9.93;3.33;;;9.40;99.90;;;;;;4921651;29;20028;-80
2022/02/14 05:49:33;;;;;;;10.68;3.40;;;9.50;99.90;;;;;;4955150;29;20028;-78
2022/02/14 05:51:58;;;;;;;9.45;3.33;;;9.50;99.90;;;;;;4933220;29;20040;-78
2022/02/14 05:54:24;;;;;;;12.07;3.70;;;9.50;99.90;;;;;;4938681;29;20054;-79
2022/02/14 05:56:50;;;;;;;9.60;3.20;;;9.50;99.90;;;;;;4940029;29;20063;-78
2022/02/14 05:59:15;;;;;;;8.80;3.55;;;9.60;99.90;;;;;;4922131;29;20063;-78
2022/02/14 06:01:41;;;;;;;9.80;4.35;;;9.60;99.90;;;;;;4915183;29;20082;-78
2022/02/14 06:04:07;;;;;;;8.02;3.08;;;9.50;99.90;;;;;;4949200;29;20437;-78
2022/02/14 06:06:33;;;;;;;8.90;3.78;;;9.50;99.90;;;;;;4936515;29;20084;-78
2022/02/14 06:08:58;;;;;;;7.60;3.22;;;9.50;99.90;;;;;;4917003;29;20039;-78
2022/02/14 06:11:24;;;;;;;9.23;3.70;;;9.50;99.90;;;;;;4942821;29;20167;-78
2022/02/14 06:13:49;;;;;;;8.18;3.00;;;9.40;99.90;;;;;;4926538;29;20060;-78
2022/02/14 06:16:15;;;;;;;8.90;3.97;;;9.40;99.90;;;;;;4957446;29;20023;-78
2022/02/14 06:18:41;;;;;;;9.55;3.70;;;9.50;99.90;;;;;;4957784;29;20027;-78
2022/02/14 06:21:07;;;;;;;9.77;4.15;;;9.60;99.90;;;;;;4941097;29;20043;-78
2022/02/14 06:23:33;;;;;;;11.27;4.13;;;9.60;99.90;;;;;;4941340;29;20032;-78
2022/02/14 06:26:02;;;;;;;12.27;5.45;;;9.60;99.90;;;;;;4942739;29;20067;-78
2022/02/14 06:28:28;;;;;;;14.45;5.60;;;9.60;99.90;;;;;;4947435;28;20403;-78
2022/02/14 06:30:54;;;;;;;18.48;7.75;;;9.60;99.90;;;;;;4961614;28;20027;-78
2022/02/14 06:33:20;;;;;;;17.05;6.65;;;9.70;99.90;;;;;;4958824;29;20038;-78
2022/02/14 06:35:46;;;;;;;32.63;13.10;;;9.60;99.90;;;;;;4961810;28;20114;-78
2022/02/14 06:38:12;;;;;;;26.95;12.65;;;9.60;99.90;;;;;;4959585;28;20023;-78
2022/02/14 06:40:37;;;;;;;13.85;7.25;;;9.60;99.90;;;;;;4961742;28;20098;-78
2022/02/14 06:43:03;;;;;;;9.48;4.90;;;9.60;99.90;;;;;;4944827;29;20028;-78
2022/02/14 06:45:28;;;;;;;10.45;3.40;;;9.60;99.90;;;;;;4962479;29;20038;-78
2022/02/14 06:47:54;;;;;;;10.93;4.03;;;9.70;99.90;;;;;;4975900;28;20023;-78
2022/02/14 06:50:20;;;;;;;9.90;4.53;;;9.70;99.90;;;;;;4959133;29;20027;-78
2022/02/14 06:52:46;;;;;;;15.77;6.05;;;9.70;99.90;;;;;;4961341;28;20036;-78
2022/02/14 06:55:12;;;;;;;13.48;8.88;;;9.70;99.90;;;;;;4960683;28;20054;-78
2022/02/14 06:57:38;;;;;;;9.00;5.30;;;9.70;99.90;;;;;;4973742;28;20502;-78
2022/02/14 07:00:08;;;;;;;11.75;5.80;;;9.70;99.90;;;;;;4943310;28;20035;-78
2022/02/14 07:02:34;;;;;;;8.93;3.38;;;9.70;99.90;;;;;;4963085;28;20535;-78
2022/02/14 07:05:00;;;;;;;11.05;3.80;;;9.70;99.90;;;;;;4960011;28;20028;-78
2022/02/14 07:07:26;;;;;;;8.38;3.00;;;9.70;99.90;;;;;;4957668;29;20063;-78
2022/02/14 07:09:51;;;;;;;9.02;3.67;;;9.70;99.90;;;;;;4938579;29;20038;-79
2022/02/14 07:12:17;;;;;;;10.30;3.10;;;9.80;99.90;;;;;;4954035;28;20038;-78
2022/02/14 07:14:43;;;;;;;10.48;3.67;;;9.80;99.90;;;;;;4960233;28;20031;-78
2022/02/14 07:17:08;;;;;;;15.70;6.25;;;9.80;99.90;;;;;;4936721;29;20099;-78
2022/02/14 07:19:34;;;;;;;12.07;5.07;;;9.90;99.90;;;;;;4955426;28;20046;-78
2022/02/14 07:22:00;;;;;;;12.75;4.38;;;9.80;99.90;;;;;;4957582;28;20097;-80
2022/02/14 07:24:26;;;;;;;10.38;4.53;;;9.90;99.90;;;;;;4941241;29;20032;-81
2022/02/14 07:26:51;;;;;;;13.90;5.38;;;9.90;99.90;;;;;;4955564;28;20044;-81
2022/02/14 07:29:17;;;;;;;17.52;6.70;;;9.80;99.90;;;;;;4958554;29;20046;-80
2022/02/14 07:31:43;;;;;;;10.88;4.18;;;9.80;99.90;;;;;;4955614;28;20046;-79
2022/02/14 07:34:08;;;;;;;13.48;4.85;;;9.80;99.90;;;;;;4956211;28;20110;-77
2022/02/14 07:36:34;;;;;;;12.45;3.55;;;9.80;99.90;;;;;;4957585;28;20071;-78
2022/02/14 07:39:00;;;;;;;12.30;4.82;;;9.90;99.90;;;;;;4939254;29;21193;-77
2022/02/14 07:41:26;;;;;;;12.30;4.03;;;9.80;99.90;;;;;;4960085;28;20039;-77
2022/02/14 07:43:52;;;;;;;9.93;4.10;;;9.80;99.90;;;;;;4960614;29;20034;-77
2022/02/14 07:46:21;;;;;;;10.00;3.83;;;9.80;99.90;;;;;;4959191;28;20027;-76
2022/02/14 07:48:47;;;;;;;9.98;3.72;;;9.80;99.90;;;;;;4959368;28;20078;-77
2022/02/14 07:51:17;;;;;;;10.43;3.88;;;9.80;99.90;;;;;;4959897;29;20142;-77
2022/02/14 07:53:43;;;;;;;9.60;3.63;;;9.80;99.90;;;;;;4962285;28;20051;-77
2022/02/14 07:56:12;;;;;;;10.88;4.03;;;9.80;99.90;;;;;;4955905;29;20102;-77
2022/02/14 07:58:39;;;;;;;8.88;4.05;;;9.90;99.90;;;;;;4958664;28;20035;-77
2022/02/14 08:01:05;;;;;;;10.50;4.53;;;9.80;99.90;;;;;;4955759;28;20043;-78
2022/02/14 08:03:31;;;;;;;11.93;4.20;;;9.80;99.90;;;;;;4960374;28;20090;-78
2022/02/14 08:05:57;;;;;;;13.52;3.88;;;9.80;99.90;;;;;;4961739;28;20114;-78
2022/02/14 08:08:23;;;;;;;12.25;4.57;;;9.80;99.90;;;;;;4957874;28;20031;-78
2022/02/14 08:10:49;;;;;;;14.82;4.38;;;9.90;99.90;;;;;;4959777;28;20066;-78
2022/02/14 08:13:15;;;;;;;10.57;4.10;;;9.80;99.90;;;;;;4955559;28;20034;-78
2022/02/14 08:15:40;;;;;;;18.50;5.88;;;9.80;99.90;;;;;;4955724;29;20497;-78
2022/02/14 08:18:09;;;;;;;12.27;5.00;;;9.80;99.90;;;;;;4939295;29;20126;-78
2022/02/14 08:20:38;;;;;;;13.48;4.85;;;9.80;99.90;;;;;;4947216;29;20230;-78
2022/02/14 08:23:04;;;;;;;17.48;5.50;;;9.90;99.90;;;;;;4956933;29;20031;-78
2022/02/14 08:25:31;;;;;;;10.20;3.90;;;9.90;99.90;;;;;;4957999;29;20027;-78
2022/02/14 08:27:58;;;;;;;10.40;4.00;;;9.90;99.90;;;;;;4976811;28;20051;-80
2022/02/14 08:30:24;;;;;;;10.98;4.53;;;9.90;99.90;;;;;;4948334;29;20039;-78
2022/02/14 08:32:50;;;;;;;12.57;4.85;;;9.90;99.90;;;;;;4939538;29;20027;-78
2022/02/14 08:35:17;;;;;;;11.32;4.45;;;9.90;99.90;;;;;;4934611;28;20035;-77
2022/02/14 08:37:44;;;;;;;8.60;3.13;;;9.90;99.90;;;;;;4953424;28;20024;-78
2022/02/14 08:40:10;;;;;;;10.60;3.90;;;9.90;99.90;;;;;;4970769;28;20034;-77
2022/02/14 08:42:36;;;;;;;9.35;3.30;;;9.90;99.90;;;;;;4954564;29;20038;-77
2022/02/14 08:45:03;;;;;;;12.52;4.10;;;9.90;99.90;;;;;;4958227;28;20036;-78
2022/02/14 08:47:28;;;;;;;7.97;3.33;;;9.90;99.90;;;;;;4956971;29;20027;-78
2022/02/14 08:49:54;;;;;;;10.85;3.55;;;9.90;99.90;;;;;;4960082;29;20039;-78
2022/02/14 08:52:20;;;;;;;10.57;3.95;;;9.90;99.90;;;;;;4955815;29;20043;-78
2022/02/14 08:54:46;;;;;;;9.32;3.60;;;9.90;99.90;;;;;;4942172;29;20050;-78
2022/02/14 08:57:12;;;;;;;11.57;3.58;;;9.90;99.90;;;;;;4974000;28;20031;-78
2022/02/14 08:59:38;;;;;;;9.02;3.30;;;9.90;99.90;;;;;;4943664;29;20031;-78
2022/02/14 09:02:05;;;;;;;8.57;3.40;;;9.90;99.90;;;;;;4960080;28;20480;-79
2022/02/14 09:04:30;;;;;;;8.75;3.00;;;9.80;99.90;;;;;;4956389;29;20412;-78
2022/02/14 09:06:56;;;;;;;8.45;3.28;;;9.80;99.90;;;;;;4955761;29;20055;-79
2022/02/14 09:09:22;;;;;;;9.95;3.78;;;9.80;99.90;;;;;;4975661;28;20031;-78
2022/02/14 09:11:48;;;;;;;9.52;3.33;;;9.70;99.90;;;;;;4960443;28;20032;-78
2022/02/14 09:14:13;;;;;;;7.13;3.30;;;9.60;99.90;;;;;;4957038;29;20039;-78
2022/02/14 09:16:39;;;;;;;7.03;3.15;;;9.50;99.90;;;;;;4957408;28;20042;-78
2022/02/14 09:19:05;;;;;;;8.13;3.20;;;9.40;99.90;;;;;;4957257;29;20031;-78
2022/02/14 09:21:31;;;;;;;7.80;3.42;;;9.30;99.90;;;;;;4939338;29;20551;-78
2022/02/14 09:23:56;;;;;;;10.38;3.70;;;9.20;99.90;;;;;;4956089;29;20062;-78
2022/02/14 09:26:23;;;;;;;8.07;3.22;;;9.10;99.90;;;;;;4952808;28;20054;-78
2022/02/14 09:28:49;;;;;;;6.75;3.30;;;9.10;99.90;;;;;;4975892;28;20046;-78
2022/02/14 09:31:16;;;;;;;8.57;4.10;;;9.00;99.90;;;;;;4974214;28;20019;-78
2022/02/14 09:33:42;;;;;;;7.68;4.13;;;9.00;99.90;;;;;;4953571;29;20042;-79
2022/02/14 09:36:08;;;;;;;8.52;4.90;;;9.00;99.90;;;;;;4953200;29;20376;-79
2022/02/14 09:38:33;;;;;;;9.35;4.63;;;9.00;99.90;;;;;;4951353;28;20106;-78
2022/02/14 09:41:00;;;;;;;7.68;4.90;;;9.00;99.90;;;;;;4958860;29;20035;-78
2022/02/14 09:43:25;;;;;;;9.55;4.72;;;9.00;99.90;;;;;;4960681;28;20030;-78
2022/02/14 09:45:51;;;;;;;8.80;4.35;;;9.10;99.90;;;;;;4959656;28;20024;-77
2022/02/14 09:48:20;;;;;;;8.77;4.38;;;9.20;99.90;;;;;;4962453;28;20039;-78
2022/02/14 09:50:46;;;;;;;8.35;4.53;;;9.30;99.90;;;;;;4977555;28;20050;-77
2022/02/14 09:53:15;;;;;;;9.15;4.32;;;9.40;99.90;;;;;;4953340;28;20028;-78
2022/02/14 09:55:43;;;;;;;8.60;3.92;;;9.50;99.90;;;;;;4955995;28;20019;-78
2022/02/14 09:58:09;;;;;;;8.73;3.95;;;9.70;99.90;;;;;;4975696;28;20329;-77
2022/02/14 10:00:36;;;;;;;8.30;4.68;;;9.70;99.90;;;;;;4960446;28;20065;-78
2022/02/14 10:03:22;;;;;;;8.85;3.72;;;9.70;99.90;;;;;;4960050;28;20054;-78
2022/02/14 10:05:56;;;;;;;6.70;3.72;;;9.80;99.90;;;;;;4961643;29;20158;-78
2022/02/14 10:08:30;;;;;;;8.40;3.97;;;9.80;99.90;;;;;;4964156;28;20360;-78
2022/02/14 10:11:21;;;;;;;7.35;3.60;;;9.80;99.90;;;;;;4965990;28;20083;-78
2022/02/14 10:13:51;;;;;;;7.05;3.88;;;9.80;99.90;;;;;;4964838;28;20038;-78
2022/02/14 10:16:17;;;;;;;7.28;3.22;;;9.90;99.90;;;;;;4964651;29;20367;-78
2022/02/14 10:18:44;;;;;;;7.57;3.78;;;9.80;99.90;;;;;;4964502;28;20041;-78
2022/02/14 10:21:25;;;;;;;6.65;3.60;;;9.90;99.90;;;;;;4963174;28;20472;-78
2022/02/14 10:24:02;;;;;;;6.40;3.67;;;10.10;99.90;;;;;;4980185;28;20110;-78
2022/02/14 10:26:37;;;;;;;8.63;3.90;;;10.20;99.90;;;;;;4970585;28;20090;-77
2022/02/14 10:29:17;;;;;;;10.27;3.75;;;10.20;99.90;;;;;;4984570;28;20054;-77
2022/02/14 10:31:57;;;;;;;7.45;4.18;;;10.30;99.90;;;;;;4985309;28;20022;-78
2022/02/14 10:34:40;;;;;;;7.07;4.00;;;10.30;99.90;;;;;;4983125;28;20046;-78
2022/02/14 10:37:14;;;;;;;8.82;3.60;;;10.50;99.90;;;;;;4985085;28;20090;-78
2022/02/14 10:39:41;;;;;;;8.00;3.80;;;10.50;99.90;;;;;;4982595;28;20026;-78
2022/02/14 10:42:09;;;;;;;9.25;4.10;;;10.60;99.90;;;;;;4982730;28;20045;-78
2022/02/14 10:47:35;;;;;;;9.05;4.20;;;10.60;99.90;;;;;;4983498;28;20050;-78
2022/02/14 10:50:03;;;;;;;10.23;4.10;;;10.60;99.90;;;;;;4982720;28;20107;-77
2022/02/14 10:52:59;;;;;;;8.13;3.95;;;10.50;99.90;;;;;;4982711;28;20094;-77
2022/02/14 10:55:42;;;;;;;7.65;4.10;;;10.60;99.90;;;;;;4969628;28;20795;-77
2022/02/14 10:58:08;;;;;;;6.55;3.97;;;10.60;99.90;;;;;;4983986;28;20026;-77
2022/02/14 11:00:38;;;;;;;7.47;4.22;;;10.60;99.90;;;;;;4963892;28;20142;-77
2022/02/14 11:03:11;;;;;;;9.30;4.13;;;10.50;99.90;;;;;;4979968;28;20027;-77
2022/02/14 11:05:40;;;;;;;7.40;4.43;;;10.50;99.90;;;;;;4965879;28;20090;-77
2022/02/14 11:08:08;;;;;;;7.85;4.70;;;10.30;99.90;;;;;;4965069;28;20035;-79
2022/02/14 11:10:37;;;;;;;7.35;4.40;;;10.30;99.90;;;;;;4979940;28;20021;-78
2022/02/14 11:13:02;;;;;;;8.45;4.60;;;10.30;99.90;;;;;;4961838;28;20407;-78
2022/02/14 11:15:33;;;;;;;9.77;5.25;;;10.40;99.90;;;;;;4964112;28;20583;-78
2022/02/14 11:18:10;;;;;;;8.52;4.72;;;11.40;99.90;;;;;;4952712;28;20091;-78
2022/02/14 11:20:36;;;;;;;8.27;4.03;;;12.70;99.90;;;;;;4954868;28;20043;-78
2022/02/14 11:23:06;;;;;;;7.18;4.40;;;12.80;99.90;;;;;;4978229;28;20098;-78
2022/02/14 11:25:31;;;;;;;6.40;3.60;;;12.40;99.90;;;;;;4969402;28;20130;-79
2022/02/14 11:28:23;;;;;;;7.78;4.18;;;12.10;99.90;;;;;;4960223;28;20384;-79
2022/02/14 11:31:10;;;;;;;7.38;4.07;;;11.60;99.90;;;;;;4961948;28;20031;-78
2022/02/14 11:33:39;;;;;;;7.93;3.67;;;11.30;99.90;;;;;;4960093;28;20087;-79
2022/02/14 11:36:10;;;;;;;7.43;3.95;;;11.10;99.90;;;;;;4960278;28;20018;-80
2022/02/14 11:38:53;;;;;;;8.63;4.07;;;10.80;99.90;;;;;;4955117;28;20027;-79
2022/02/14 11:41:37;;;;;;;7.22;3.55;;;11.20;99.90;;;;;;4974395;28;20031;-79
2022/02/14 11:44:11;;;;;;;7.72;3.95;;;11.70;99.90;;;;;;4971567;28;20043;-78
2022/02/14 11:46:59;;;;;;;7.18;3.40;;;12.60;99.90;;;;;;4957193;28;20069;-79
2022/02/14 11:49:47;;;;;;;6.95;3.53;;;13.50;99.90;;;;;;4941723;28;20035;-79
2022/02/14 11:52:25;;;;;;;7.38;3.08;;;13.30;99.90;;;;;;4975049;28;20031;-79
2022/02/14 11:54:51;;;;;;;8.10;3.08;;;12.50;99.90;;;;;;4973567;28;20156;-79
2022/02/14 11:57:49;;;;;;;8.80;3.80;;;12.10;99.90;;;;;;4965137;28;20031;-79
2022/02/14 12:00:14;;;;;;;8.80;3.65;;;11.70;99.90;;;;;;4973736;28;20023;-79
2022/02/14 12:02:42;;;;;;;12.02;3.67;;;11.30;99.90;;;;;;4958710;28;20042;-80
2022/02/14 12:05:08;;;;;;;7.40;3.33;;;11.20;99.90;;;;;;4947334;28;20130;-79
2022/02/14 12:07:41;;;;;;;8.35;2.85;;;11.20;99.90;;;;;;4974469;28;20030;-80
2022/02/14 12:10:21;;;;;;;8.18;2.70;;;11.20;99.90;;;;;;4952470;28;20522;-80
2022/02/14 12:12:54;;;;;;;7.57;2.90;;;11.20;99.90;;;;;;4975012;28;20048;-80
2022/02/14 12:21:11;;;;;;;8.38;3.00;;;11.00;99.90;;;;;;4973959;28;20077;-79
2022/02/14 12:23:41;;;;;;;7.95;3.13;;;10.80;99.90;;;;;;4979654;28;20042;-79
2022/02/14 12:26:09;;;;;;;8.52;2.95;;;10.70;99.90;;;;;;4975455;28;20046;-80
2022/02/14 12:28:37;;;;;;;7.53;3.03;;;10.80;99.90;;;;;;4974397;28;20026;-83
2022/02/14 12:31:03;;;;;;;9.57;3.15;;;10.70;99.90;;;;;;4974909;28;20027;-80
2022/02/14 12:33:29;;;;;;;10.77;2.60;;;10.60;99.90;;;;;;4975492;28;20022;-79
2022/02/14 12:35:58;;;;;;;7.57;2.40;;;10.50;99.90;;;;;;4960573;28;20406;-79
2022/02/14 12:38:34;;;;;;;9.65;2.58;;;10.80;99.90;;;;;;4967977;28;20024;-79
2022/02/14 12:41:11;;;;;;;7.85;2.00;;;11.20;99.90;;;;;;4975643;28;21351;-79
2022/02/14 12:43:42;;;;;;;5.63;1.67;;;11.10;99.90;;;;;;4966416;28;20034;-79
2022/02/14 12:46:14;;;;;;;8.00;1.90;;;11.10;99.90;;;;;;4970629;28;20026;-79
2022/02/14 12:48:45;;;;;;;7.78;1.70;;;11.10;99.90;;;;;;4957686;28;20027;-79
2022/02/14 12:51:21;;;;;;;5.68;1.83;;;11.00;99.90;;;;;;4958590;28;20062;-79
2022/02/14 12:53:54;;;;;;;8.00;2.00;;;10.90;99.90;;;;;;4979172;28;20054;-80
2022/02/14 12:56:23;;;;;;;5.50;1.70;;;10.90;99.90;;;;;;4960729;28;20043;-79
2022/02/14 12:58:59;;;;;;;5.88;2.00;;;10.80;99.90;;;;;;4973649;28;20074;-79
2022/02/14 13:01:46;;;;;;;9.00;2.13;;;10.70;99.90;;;;;;4952293;28;20066;-79
2022/02/14 13:04:13;;;;;;;6.53;2.05;;;10.50;99.90;;;;;;4951961;28;20027;-80